createdAt,value
2022-08-16T00:03:07.744Z,11.20
2022-08-16T00:09:15.784Z,11.80
2022-08-16T00:15:51.432Z,11.23
2022-08-16T00:21:57.086Z,11.13
2022-08-16T00:28:04.772Z,11.75
2022-08-16T00:34:08.433Z,11.80
2022-08-16T00:40:33.684Z,11.48
2022-08-16T00:46:54.050Z,11.32
2022-08-16T00:53:08.672Z,11.88
2022-08-16T00:59:15.265Z,10.82
2022-08-16T01:05:19.129Z,11.32
2022-08-16T01:11:27.295Z,12.00
2022-08-16T01:17:36.578Z,11.07
2022-08-16T01:24:51.866Z,11.20
2022-08-16T01:30:49.955Z,10.57
2022-08-16T01:37:01.461Z,11.57
2022-08-16T01:43:05.753Z,12.07
2022-08-16T01:49:12.803Z,11.40
2022-08-16T01:55:18.474Z,10.38
2022-08-16T02:01:20.584Z,10.93
2022-08-16T02:07:23.780Z,11.82
2022-08-16T02:13:27.738Z,11.30
2022-08-16T02:19:59.454Z,11.15
2022-08-16T02:25:59.529Z,10.80
2022-08-16T02:32:03.380Z,11.55
2022-08-16T02:38:24.097Z,11.95
2022-08-16T02:44:26.964Z,10.95
2022-08-16T02:50:54.696Z,11.32
2022-08-16T02:56:52.072Z,10.23
2022-08-16T03:02:56.507Z,11.43
2022-08-16T03:08:58.556Z,11.65
2022-08-16T03:15:01.804Z,11.18
2022-08-16T03:21:03.869Z,10.77
2022-08-16T03:27:06.999Z,10.02
2022-08-16T03:33:11.640Z,9.65
2022-08-16T03:39:15.126Z,10.48
2022-08-16T03:45:27.271Z,10.18
2022-08-16T03:51:33.093Z,9.30
2022-08-16T03:57:36.359Z,9.38
2022-08-16T04:03:38.377Z,8.07
2022-08-16T04:09:40.207Z,7.22
2022-08-16T04:15:42.169Z,6.50
2022-08-16T04:21:45.952Z,5.95
2022-08-16T04:27:54.256Z,5.55
2022-08-16T04:33:59.540Z,5.15
2022-08-16T04:40:01.304Z,4.60
2022-08-16T04:46:32.015Z,4.43
2022-08-16T04:52:34.595Z,9.95
2022-08-16T04:58:44.009Z,5.55
2022-08-16T05:04:47.973Z,9.32
2022-08-16T05:10:50.060Z,12.63
2022-08-16T05:16:52.109Z,12.45
2022-08-16T05:22:54.228Z,13.38
2022-08-16T05:28:58.719Z,13.68
2022-08-16T05:35:01.164Z,13.02
2022-08-16T05:41:03.904Z,12.60
2022-08-16T05:47:05.826Z,13.32
2022-08-16T05:53:10.075Z,10.70
2022-08-16T05:59:13.396Z,10.48
2022-08-16T06:05:15.844Z,10.15
2022-08-16T06:11:17.835Z,10.18
2022-08-16T06:17:21.537Z,9.05
2022-08-16T06:23:24.398Z,8.48
2022-08-16T06:29:26.510Z,9.05
2022-08-16T06:35:40.279Z,10.70
2022-08-16T06:41:42.320Z,9.85
2022-08-16T06:47:54.110Z,9.38
2022-08-16T06:53:58.289Z,8.77
2022-08-16T07:00:00.125Z,8.20
2022-08-16T07:06:04.805Z,8.80
2022-08-16T07:12:07.223Z,8.20
2022-08-16T07:18:11.338Z,8.63
2022-08-16T07:24:30.495Z,7.35
2022-08-16T07:30:39.655Z,7.63
2022-08-16T07:36:57.880Z,8.25
2022-08-16T07:43:00.811Z,7.25
2022-08-16T07:49:04.965Z,7.65
2022-08-16T07:55:15.318Z,7.78
2022-08-16T08:01:17.431Z,6.53
2022-08-16T08:07:19.384Z,8.00
2022-08-16T08:13:41.822Z,9.23
2022-08-16T08:19:45.853Z,10.48
2022-08-16T08:25:56.022Z,11.13
2022-08-16T08:31:57.890Z,11.70
2022-08-16T08:38:00.199Z,12.77
2022-08-16T08:44:29.464Z,11.68
2022-08-16T08:50:32.249Z,11.13
2022-08-16T08:56:45.479Z,10.65
2022-08-16T09:02:52.260Z,10.40
2022-08-16T09:08:54.739Z,10.45
2022-08-16T09:15:00.573Z,12.07
2022-08-16T09:21:02.429Z,13.77
2022-08-16T09:27:05.571Z,12.10
2022-08-16T09:33:07.708Z,13.23
2022-08-16T09:39:16.341Z,6.53
2022-08-16T09:45:18.757Z,6.40
2022-08-16T09:51:34.354Z,5.55
2022-08-16T09:57:41.755Z,4.85
2022-08-16T10:04:01.924Z,4.75
2022-08-16T10:10:09.787Z,5.32
2022-08-16T10:22:17.268Z,6.13
2022-08-16T10:28:28.529Z,6.60
2022-08-16T10:34:32.763Z,6.65
2022-08-16T10:40:35.695Z,6.65
2022-08-16T10:46:41.984Z,6.40
2022-08-16T10:52:44.762Z,6.00
2022-08-16T10:58:51.765Z,6.93
2022-08-16T11:05:10.694Z,6.55
2022-08-16T11:11:19.543Z,6.10
2022-08-16T11:17:22.230Z,6.47
2022-08-16T11:23:25.789Z,5.60
2022-08-16T11:29:27.636Z,6.00
2022-08-16T11:41:54.182Z,6.18
2022-08-16T11:47:56.028Z,5.57
2022-08-16T11:53:58.439Z,5.00
2022-08-16T12:00:00.852Z,5.75
2022-08-16T12:06:25.311Z,5.00
2022-08-16T12:12:32.873Z,5.00
2022-08-16T12:18:37.791Z,5.15
2022-08-16T12:24:41.634Z,4.65
2022-08-16T12:30:46.928Z,4.78
2022-08-16T12:36:48.847Z,4.80
2022-08-16T12:42:53.552Z,5.05
2022-08-16T12:48:58.272Z,4.45
2022-08-16T12:55:01.213Z,5.38
2022-08-16T13:01:03.997Z,5.32
2022-08-16T13:07:08.566Z,5.43
2022-08-16T13:13:11.017Z,6.32
2022-08-16T13:19:13.113Z,5.57
2022-08-16T13:25:21.246Z,5.85
2022-08-16T13:31:23.982Z,5.03
2022-08-16T13:37:25.983Z,5.50
2022-08-16T13:43:29.048Z,5.78
2022-08-16T13:49:35.591Z,5.30
2022-08-16T13:55:37.525Z,5.43
2022-08-16T14:01:43.232Z,5.60
2022-08-16T14:07:52.571Z,5.50
2022-08-16T14:13:54.901Z,5.93
2022-08-16T14:19:59.973Z,6.57
2022-08-16T14:26:02.507Z,5.85
2022-08-16T14:32:07.789Z,6.25
2022-08-16T14:38:11.272Z,5.63
2022-08-16T14:44:19.897Z,7.13
2022-08-16T14:50:25.630Z,7.10
2022-08-16T14:56:38.429Z,6.43
2022-08-16T15:02:45.273Z,6.72
2022-08-16T15:08:48.017Z,6.68
2022-08-16T15:14:52.292Z,6.78
2022-08-16T15:20:54.614Z,7.03
2022-08-16T15:26:56.958Z,6.63
2022-08-16T15:33:05.492Z,6.45
2022-08-16T15:39:25.611Z,7.47
2022-08-16T15:45:48.276Z,7.00
2022-08-16T15:51:57.763Z,8.07
2022-08-16T15:58:01.128Z,8.45
2022-08-16T16:04:25.848Z,7.47
2022-08-16T16:10:29.316Z,9.07
2022-08-16T16:16:31.784Z,8.77
2022-08-16T16:22:34.257Z,10.57
2022-08-16T16:29:05.073Z,9.05
2022-08-16T16:34:59.009Z,8.95
2022-08-16T16:41:09.418Z,8.95
2022-08-16T16:47:11.680Z,8.77
2022-08-16T16:53:17.143Z,8.00
2022-08-16T16:59:20.171Z,8.48
2022-08-16T17:05:23.201Z,8.57
2022-08-16T17:11:26.032Z,8.73
2022-08-16T17:17:36.131Z,8.43
2022-08-16T17:23:58.052Z,8.00
2022-08-16T17:30:01.259Z,8.57
2022-08-16T17:36:03.581Z,8.55
2022-08-16T17:42:15.749Z,8.32
2022-08-16T17:48:19.085Z,8.57
2022-08-16T17:54:30.149Z,9.15
2022-08-16T18:00:32.863Z,8.55
2022-08-16T18:06:34.667Z,8.10
2022-08-16T18:12:44.759Z,8.68
2022-08-16T18:18:53.359Z,9.40
2022-08-16T18:24:56.319Z,11.95
2022-08-16T18:31:01.127Z,10.80
2022-08-16T18:37:05.809Z,10.75
2022-08-16T18:43:14.092Z,11.45
2022-08-16T18:49:17.849Z,11.30
2022-08-16T18:55:21.411Z,11.63
2022-08-16T19:01:24.115Z,10.88
2022-08-16T19:07:30.716Z,12.25
2022-08-16T19:13:34.570Z,10.38
2022-08-16T19:19:36.286Z,10.85
2022-08-16T19:25:47.566Z,10.65
2022-08-16T19:31:51.231Z,9.95
2022-08-16T19:37:54.013Z,9.77
2022-08-16T19:43:55.797Z,9.32
2022-08-16T19:49:58.071Z,10.55
2022-08-16T19:55:59.953Z,10.18
2022-08-16T20:02:02.408Z,9.18
2022-08-16T20:08:04.755Z,8.50
2022-08-16T20:14:06.604Z,8.20
2022-08-16T20:20:08.778Z,8.95
2022-08-16T20:26:13.811Z,8.65
2022-08-16T20:32:23.965Z,7.63
2022-08-16T20:38:27.458Z,8.70
2022-08-16T20:44:29.333Z,8.30
2022-08-16T20:50:32.010Z,7.63
2022-08-16T20:56:33.710Z,7.65
2022-08-16T21:02:35.422Z,7.22
2022-08-16T21:08:51.989Z,6.80
2022-08-16T21:14:55.563Z,7.75
2022-08-16T21:20:57.344Z,7.35
2022-08-16T21:26:59.073Z,6.95
2022-08-16T21:33:10.081Z,6.55
2022-08-16T21:39:11.851Z,6.30
2022-08-16T21:45:14.534Z,6.97
2022-08-16T21:51:16.290Z,6.15
2022-08-16T21:57:22.801Z,6.93
2022-08-16T22:03:25.370Z,5.80
2022-08-16T22:09:27.261Z,6.45
2022-08-16T22:15:28.968Z,6.03
2022-08-16T22:21:32.004Z,6.00
2022-08-16T22:27:33.765Z,5.78
2022-08-16T22:33:35.512Z,6.28
2022-08-16T22:39:37.322Z,5.63
2022-08-16T22:45:39.385Z,5.25
2022-08-16T22:51:42.362Z,5.88
2022-08-16T22:57:44.494Z,5.50
2022-08-16T23:03:46.274Z,5.60
2022-08-16T23:09:48.038Z,5.60
2022-08-16T23:15:57.087Z,5.78
2022-08-16T23:22:00.820Z,6.20
2022-08-16T23:28:03.577Z,5.18
2022-08-16T23:34:05.349Z,5.45
2022-08-16T23:40:11.737Z,5.65
2022-08-16T23:46:17.092Z,5.35
2022-08-16T23:52:19.212Z,5.60
2022-08-16T23:58:47.013Z,5.95
